createdAt,value
2018-09-17T00:00:04.947Z,84.19
2018-09-17T00:02:32.111Z,83.80
2018-09-17T00:04:59.252Z,83.50
2018-09-17T00:07:26.408Z,83.86
2018-09-17T00:09:53.562Z,83.78
2018-09-17T00:12:20.760Z,85.54
2018-09-17T00:14:47.911Z,85.88
2018-09-17T00:17:15.115Z,85.76
2018-09-17T00:19:42.278Z,89.58
2018-09-17T00:22:09.399Z,88.25
2018-09-17T00:24:36.596Z,87.89
2018-09-17T00:27:03.756Z,87.92
2018-09-17T00:29:30.926Z,89.37
2018-09-17T00:31:58.076Z,87.96
2018-09-17T00:34:25.281Z,86.41
2018-09-17T00:36:52.452Z,85.20
2018-09-17T00:39:19.610Z,84.90
2018-09-17T00:41:46.819Z,84.16
2018-09-17T00:44:13.945Z,85.37
2018-09-17T00:46:41.165Z,87.99
2018-09-17T00:49:08.333Z,88.44
2018-09-17T00:51:35.603Z,87.83
2018-09-17T00:54:02.813Z,88.28
2018-09-17T00:56:29.927Z,86.87
2018-09-17T00:58:57.034Z,85.25
2018-09-17T01:01:24.216Z,84.74
2018-09-17T01:03:51.444Z,84.82
2018-09-17T01:06:18.562Z,84.89
2018-09-17T01:08:45.716Z,84.05
2018-09-17T01:11:12.984Z,84.76
2018-09-17T01:13:40.149Z,84.79
2018-09-17T01:16:07.358Z,85.12
2018-09-17T01:18:34.558Z,86.39
2018-09-17T01:21:01.716Z,87.55
2018-09-17T01:23:28.860Z,90.27
2018-09-17T01:25:56.063Z,92.43
2018-09-17T01:28:23.208Z,89.62
2018-09-17T01:30:50.487Z,88.31
2018-09-17T01:33:17.754Z,87.85
2018-09-17T01:35:44.973Z,87.11
2018-09-17T01:38:12.132Z,86.95
2018-09-17T01:40:39.315Z,87.76
2018-09-17T01:43:06.604Z,87.56
2018-09-17T01:45:33.790Z,87.01
2018-09-17T01:48:00.953Z,86.44
2018-09-17T01:50:28.122Z,86.36
2018-09-17T01:52:55.279Z,86.06
2018-09-17T01:55:22.436Z,87.68
2018-09-17T01:57:49.699Z,90.16
2018-09-17T02:00:16.875Z,91.36
2018-09-17T02:02:44.136Z,92.14
2018-09-17T02:05:11.339Z,91.18
2018-09-17T02:07:38.696Z,89.63
2018-09-17T02:10:06.001Z,88.51
2018-09-17T02:12:33.152Z,87.04
2018-09-17T02:15:00.339Z,86.44
2018-09-17T02:17:27.695Z,86.02
2018-09-17T02:19:54.856Z,87.42
2018-09-17T02:22:22.171Z,87.20
2018-09-17T02:24:49.511Z,86.06
2018-09-17T02:27:16.808Z,86.47
2018-09-17T02:29:43.901Z,87.83
2018-09-17T02:32:11.075Z,86.48
2018-09-17T02:34:38.229Z,86.28
2018-09-17T02:37:05.424Z,86.14
2018-09-17T02:39:32.597Z,86.12
2018-09-17T02:41:59.772Z,85.72
2018-09-17T02:44:26.924Z,85.71
2018-09-17T02:46:54.044Z,85.28
2018-09-17T02:49:21.244Z,86.21
2018-09-17T02:51:48.499Z,86.89
2018-09-17T02:54:15.655Z,86.16
2018-09-17T02:56:42.865Z,85.15
2018-09-17T02:59:10.127Z,86.07
2018-09-17T03:01:37.265Z,86.95
2018-09-17T03:04:04.517Z,88.16
2018-09-17T03:06:31.666Z,87.63
2018-09-17T03:08:58.797Z,86.89
2018-09-17T03:11:26.009Z,86.83
2018-09-17T03:13:53.363Z,86.66
2018-09-17T03:16:20.552Z,87.86
2018-09-17T03:18:50.507Z,87.02
2018-09-17T03:21:17.714Z,86.25
2018-09-17T03:23:44.905Z,87.15
2018-09-17T03:26:12.053Z,88.00
2018-09-17T03:28:39.257Z,87.04
2018-09-17T03:31:06.368Z,87.96
2018-09-17T03:33:33.561Z,87.69
2018-09-17T03:36:00.897Z,86.85
2018-09-17T03:38:43.562Z,86.62
2018-09-17T03:41:11.492Z,88.40
2018-09-17T03:43:39.964Z,86.02
2018-09-17T03:46:07.162Z,86.65
2018-09-17T03:48:35.103Z,86.75
2018-09-17T03:51:03.125Z,86.40
2018-09-17T03:53:30.741Z,87.21
2018-09-17T03:55:57.945Z,86.77
2018-09-17T03:58:25.182Z,85.36
2018-09-17T04:00:52.379Z,86.13
2018-09-17T04:03:19.631Z,85.91
2018-09-17T04:05:46.838Z,85.24
2018-09-17T04:08:14.024Z,85.13
2018-09-17T04:10:41.235Z,85.71
2018-09-17T04:13:09.090Z,86.16
2018-09-17T04:15:36.273Z,85.36
2018-09-17T04:18:03.452Z,85.72
2018-09-17T04:20:30.648Z,87.35
2018-09-17T04:22:57.903Z,86.63
2018-09-17T04:25:25.233Z,85.54
2018-09-17T04:27:52.396Z,84.75
2018-09-17T04:30:19.532Z,84.74
2018-09-17T04:32:46.732Z,88.10
2018-09-17T04:35:13.994Z,91.65
2018-09-17T04:37:41.172Z,92.03
2018-09-17T04:40:08.593Z,90.29
2018-09-17T04:42:36.807Z,89.56
2018-09-17T04:45:04.060Z,88.45
2018-09-17T04:47:31.708Z,88.62
2018-09-17T04:49:58.919Z,88.15
2018-09-17T04:52:26.041Z,89.30
2018-09-17T04:54:53.204Z,90.09
2018-09-17T04:57:20.442Z,89.45
2018-09-17T04:59:47.571Z,88.02
2018-09-17T05:02:14.756Z,87.08
2018-09-17T05:04:41.976Z,89.89
2018-09-17T05:07:09.127Z,90.36
2018-09-17T05:09:36.304Z,89.67
2018-09-17T05:12:03.684Z,89.21
2018-09-17T05:14:30.803Z,91.19
2018-09-17T05:16:58.095Z,89.05
2018-09-17T05:19:25.322Z,88.76
2018-09-17T05:21:52.540Z,89.69
2018-09-17T05:24:19.767Z,88.14
2018-09-17T05:26:47.035Z,88.38
2018-09-17T05:29:14.235Z,90.24
2018-09-17T05:31:41.445Z,90.37
2018-09-17T05:34:08.590Z,92.25
2018-09-17T05:36:35.861Z,92.35
2018-09-17T05:39:04.360Z,91.62
2018-09-17T05:41:31.581Z,90.19
2018-09-17T05:43:58.776Z,88.82
2018-09-17T05:46:26.379Z,88.10
2018-09-17T05:48:53.503Z,87.24
2018-09-17T05:51:20.743Z,87.27
2018-09-17T05:53:47.975Z,87.14
2018-09-17T05:56:15.132Z,86.50
2018-09-17T05:58:42.263Z,87.18
2018-09-17T06:01:09.486Z,89.25
2018-09-17T06:03:36.680Z,87.78
2018-09-17T06:06:03.959Z,89.37
2018-09-17T06:08:31.049Z,91.61
2018-09-17T06:10:58.255Z,90.29
2018-09-17T06:13:25.381Z,91.15
2018-09-17T06:15:52.595Z,90.11
2018-09-17T06:18:19.876Z,87.55
2018-09-17T06:20:47.040Z,87.87
2018-09-17T06:23:14.252Z,88.69
2018-09-17T06:25:41.432Z,88.29
2018-09-17T06:28:08.595Z,87.20
2018-09-17T06:30:35.788Z,87.86
2018-09-17T06:33:02.952Z,88.15
2018-09-17T06:35:30.114Z,86.84
2018-09-17T06:37:57.264Z,86.97
2018-09-17T06:40:24.482Z,87.00
2018-09-17T06:42:51.605Z,86.78
2018-09-17T06:45:18.820Z,86.33
2018-09-17T06:47:45.996Z,84.95
2018-09-17T06:50:13.149Z,86.43
2018-09-17T06:52:40.366Z,84.42
2018-09-17T06:55:07.760Z,84.84
2018-09-17T06:57:34.933Z,86.09
2018-09-17T07:00:02.466Z,83.63
2018-09-17T07:02:29.648Z,83.61
2018-09-17T07:04:56.840Z,85.43
2018-09-17T07:07:24.074Z,84.38
2018-09-17T07:09:51.256Z,82.89
2018-09-17T07:12:18.428Z,82.09
2018-09-17T07:14:45.606Z,81.83
2018-09-17T07:17:12.760Z,80.27
2018-09-17T07:19:39.953Z,80.30
2018-09-17T07:22:07.124Z,79.03
2018-09-17T07:24:34.292Z,78.65
2018-09-17T07:27:01.480Z,80.49
2018-09-17T07:29:28.639Z,77.46
2018-09-17T07:31:55.833Z,75.95
2018-09-17T07:34:23.088Z,75.16
2018-09-17T07:36:50.251Z,75.16
2018-09-17T07:39:17.493Z,74.10
2018-09-17T07:41:44.644Z,75.03
2018-09-17T07:44:11.879Z,73.87
2018-09-17T07:46:39.102Z,73.99
2018-09-17T07:49:06.264Z,74.30
2018-09-17T07:51:33.419Z,74.56
2018-09-17T07:54:00.620Z,71.59
2018-09-17T07:56:28.207Z,72.10
2018-09-17T07:58:55.430Z,72.00
2018-09-17T08:01:22.580Z,70.83
2018-09-17T08:03:49.817Z,70.64
2018-09-17T08:06:16.992Z,71.25
2018-09-17T08:08:44.229Z,70.84
2018-09-17T08:11:11.427Z,70.23
2018-09-17T08:13:38.830Z,70.82
2018-09-17T08:16:06.036Z,71.48
2018-09-17T08:18:33.187Z,69.09
2018-09-17T08:21:00.375Z,70.13
2018-09-17T08:23:27.575Z,72.34
2018-09-17T08:25:54.781Z,70.96
2018-09-17T08:28:22.096Z,71.31
2018-09-17T08:30:49.291Z,72.96
2018-09-17T08:33:16.436Z,69.84
2018-09-17T08:35:43.657Z,69.71
2018-09-17T08:38:10.829Z,70.40
2018-09-17T08:40:38.039Z,70.42
2018-09-17T08:43:05.624Z,70.04
2018-09-17T08:45:32.767Z,70.93
2018-09-17T08:47:59.968Z,69.15
2018-09-17T08:50:27.169Z,69.93
2018-09-17T08:52:54.392Z,69.14
2018-09-17T08:55:27.443Z,68.30
2018-09-17T08:58:00.955Z,68.80
2018-09-17T09:01:08.320Z,69.51
2018-09-17T09:03:38.856Z,68.59
2018-09-17T09:06:11.758Z,68.80
2018-09-17T09:08:38.913Z,69.12
2018-09-17T09:11:11.779Z,68.94
2018-09-17T09:13:44.531Z,68.87
2018-09-17T09:16:11.655Z,68.43
2018-09-17T09:18:38.796Z,69.58
2018-09-17T09:21:06.031Z,69.89
2018-09-17T09:23:33.220Z,67.49
2018-09-17T09:26:00.440Z,69.43
2018-09-17T09:28:27.772Z,68.89
2018-09-17T09:30:54.936Z,67.72
2018-09-17T09:33:22.115Z,68.47
2018-09-17T09:35:49.313Z,67.39
2018-09-17T09:38:16.515Z,67.96
2018-09-17T09:40:43.695Z,68.38
2018-09-17T09:43:10.827Z,68.46
2018-09-17T09:45:37.959Z,67.72
2018-09-17T09:48:11.928Z,66.91
2018-09-17T09:50:39.124Z,68.05
2018-09-17T09:53:06.287Z,67.05
2018-09-17T09:55:33.603Z,66.63
2018-09-17T09:58:07.632Z,66.45
2018-09-17T10:01:39.082Z,66.57
2018-09-17T10:04:12.112Z,67.43
2018-09-17T10:06:39.260Z,65.29
2018-09-17T10:09:12.852Z,66.06
2018-09-17T10:11:45.773Z,66.17
2018-09-17T10:14:18.655Z,64.49
2018-09-17T10:17:51.319Z,64.41
2018-09-17T10:20:18.624Z,62.97
2018-09-17T10:22:45.855Z,63.46
2018-09-17T10:25:13.093Z,62.67
2018-09-17T10:27:40.355Z,62.87
2018-09-17T10:30:07.540Z,62.34
2018-09-17T10:32:34.737Z,62.27
2018-09-17T10:35:02.008Z,59.03
2018-09-17T10:37:29.173Z,59.25
2018-09-17T10:39:56.345Z,58.02
2018-09-17T10:42:23.488Z,57.29
2018-09-17T10:44:50.604Z,56.54
2018-09-17T10:47:17.817Z,58.26
2018-09-17T10:49:45.013Z,56.71
2018-09-17T10:52:12.207Z,56.73
2018-09-17T10:54:39.443Z,55.29
2018-09-17T10:57:06.607Z,53.61
2018-09-17T10:59:33.836Z,52.53
2018-09-17T11:02:00.984Z,52.32
2018-09-17T11:04:28.176Z,52.74
2018-09-17T11:06:55.399Z,51.37
2018-09-17T11:09:22.608Z,51.52
2018-09-17T11:11:56.560Z,48.49
2018-09-17T11:14:23.740Z,46.25
2018-09-17T11:16:50.875Z,47.57
2018-09-17T11:19:18.027Z,46.67
2018-09-17T11:21:45.179Z,45.63
2018-09-17T11:24:12.421Z,47.18
2018-09-17T11:26:39.600Z,46.78
2018-09-17T11:29:06.740Z,45.36
2018-09-17T11:31:33.972Z,46.05
2018-09-17T11:34:01.097Z,46.73
2018-09-17T11:36:28.273Z,46.50
2018-09-17T11:38:55.420Z,46.11
2018-09-17T11:41:22.578Z,46.71
2018-09-17T11:43:49.900Z,46.33
2018-09-17T11:46:17.156Z,46.63
2018-09-17T11:48:44.348Z,48.72
2018-09-17T11:51:11.495Z,48.60
2018-09-17T11:53:38.763Z,50.63
2018-09-17T11:56:05.849Z,49.68
2018-09-17T11:58:33.112Z,49.37
2018-09-17T12:01:06.016Z,47.73
2018-09-17T12:03:39.008Z,45.99
2018-09-17T12:06:06.223Z,45.91
2018-09-17T12:08:33.397Z,44.09
2018-09-17T12:11:00.616Z,44.37
2018-09-17T12:13:27.794Z,43.51
2018-09-17T12:15:54.932Z,44.50
2018-09-17T12:18:22.163Z,45.18
2018-09-17T12:20:49.304Z,45.72
2018-09-17T12:23:16.484Z,45.56
2018-09-17T12:25:43.669Z,46.14
2018-09-17T12:28:10.836Z,44.86
2018-09-17T12:30:38.012Z,44.41
2018-09-17T12:33:11.999Z,42.34
2018-09-17T12:35:39.140Z,41.65
2018-09-17T12:38:06.280Z,40.33
2018-09-17T12:40:33.457Z,39.19
2018-09-17T12:43:00.685Z,37.61
2018-09-17T12:45:27.884Z,36.51
2018-09-17T12:47:55.367Z,36.66
2018-09-17T12:50:22.840Z,36.94
2018-09-17T12:52:50.009Z,36.15
2018-09-17T12:55:17.280Z,36.82
2018-09-17T12:57:44.580Z,35.66
2018-09-17T13:00:11.816Z,35.03
2018-09-17T13:02:39.083Z,34.86
2018-09-17T13:05:06.544Z,35.30
2018-09-17T13:07:33.741Z,35.66
2018-09-17T13:10:01.075Z,36.13
2018-09-17T13:12:28.329Z,35.73
2018-09-17T13:14:56.062Z,36.31
2018-09-17T13:17:23.167Z,35.78
2018-09-17T13:19:50.360Z,35.08
2018-09-17T13:22:17.566Z,35.52
2018-09-17T13:24:44.837Z,35.29
2018-09-17T13:27:12.044Z,33.51
2018-09-17T13:29:39.287Z,33.87
2018-09-17T13:32:06.606Z,36.02
2018-09-17T13:34:33.727Z,34.81
2018-09-17T13:37:00.988Z,34.15
2018-09-17T13:39:28.181Z,33.66
2018-09-17T13:41:55.336Z,34.48
2018-09-17T13:44:22.599Z,36.03
2018-09-17T13:46:49.812Z,33.43
2018-09-17T13:49:16.991Z,33.88
2018-09-17T13:51:44.294Z,33.46
2018-09-17T13:54:11.575Z,32.93
2018-09-17T13:56:38.773Z,32.05
2018-09-17T13:59:06.117Z,33.24
2018-09-17T14:01:33.322Z,33.11
2018-09-17T14:04:00.493Z,32.58
2018-09-17T14:06:27.671Z,31.70
2018-09-17T14:08:54.864Z,31.52
2018-09-17T14:11:22.104Z,31.73
2018-09-17T14:13:49.351Z,30.93
2018-09-17T14:16:21.130Z,30.70
2018-09-17T14:18:48.311Z,31.19
2018-09-17T14:21:15.536Z,31.49
2018-09-17T14:23:42.713Z,32.24
2018-09-17T16:07:00.671Z,37.90
2018-09-17T16:09:27.833Z,42.11
2018-09-17T16:11:56.740Z,45.03
2018-09-17T16:14:24.236Z,43.34
2018-09-17T16:16:51.476Z,42.79
2018-09-17T16:19:18.628Z,42.26
2018-09-17T16:21:45.918Z,45.42
2018-09-17T16:24:13.115Z,45.18
2018-09-17T16:26:40.313Z,46.59
2018-09-17T16:29:07.529Z,46.39
2018-09-17T16:31:34.818Z,47.60
2018-09-17T16:34:02.044Z,50.94
2018-09-17T16:36:29.362Z,51.48
2018-09-17T16:38:56.558Z,52.04
2018-09-17T16:41:23.837Z,52.83
2018-09-17T16:43:51.008Z,52.62
2018-09-17T16:46:18.224Z,53.29
2018-09-17T16:48:45.405Z,54.24
2018-09-17T16:51:12.775Z,54.41
2018-09-17T16:53:40.298Z,54.69
2018-09-17T16:56:07.457Z,55.88
2018-09-17T16:58:34.737Z,57.01
2018-09-17T17:01:02.196Z,56.53
2018-09-17T17:03:29.408Z,57.22
2018-09-17T17:05:56.752Z,57.33
2018-09-17T17:08:23.978Z,58.34
2018-09-17T17:10:51.341Z,58.11
2018-09-17T17:13:18.529Z,58.62
2018-09-17T17:15:47.320Z,60.08
2018-09-17T17:18:15.781Z,60.01
2018-09-17T17:20:43.163Z,59.42
2018-09-17T17:23:10.369Z,60.10
2018-09-17T17:25:37.573Z,59.71
2018-09-17T17:28:04.839Z,59.75
2018-09-17T17:30:32.131Z,61.72
2018-09-17T17:32:59.376Z,62.29
2018-09-17T17:35:26.677Z,62.02
2018-09-17T17:37:53.957Z,62.76
2018-09-17T17:40:21.351Z,63.19
2018-09-17T17:42:48.612Z,65.35
2018-09-17T17:45:15.975Z,64.86
2018-09-17T17:47:43.284Z,66.55
2018-09-17T17:50:10.584Z,66.34
2018-09-17T17:52:37.811Z,65.51
2018-09-17T17:55:05.713Z,66.42
2018-09-17T17:57:32.944Z,66.00
2018-09-17T18:00:00.273Z,66.72
2018-09-17T18:02:27.669Z,66.58
2018-09-17T18:04:55.028Z,67.41
2018-09-17T18:07:22.427Z,68.10
2018-09-17T18:09:49.669Z,67.21
2018-09-17T18:12:17.081Z,67.80
2018-09-17T18:14:45.306Z,66.74
2018-09-17T18:17:13.007Z,66.37
2018-09-17T18:19:40.309Z,67.19
2018-09-17T18:22:07.583Z,67.70
2018-09-17T18:24:35.060Z,67.70
2018-09-17T18:27:02.553Z,67.97
2018-09-17T18:29:29.746Z,68.92
2018-09-17T18:31:56.974Z,72.24
2018-09-17T18:34:24.428Z,72.59
2018-09-17T18:36:51.851Z,72.75
2018-09-17T18:39:19.353Z,74.33
2018-09-17T18:41:46.652Z,73.92
2018-09-17T18:44:13.933Z,73.12
2018-09-17T18:46:41.165Z,73.14
2018-09-17T18:49:08.600Z,72.47
2018-09-17T18:51:35.965Z,72.10
2018-09-17T18:54:03.352Z,71.99
2018-09-17T18:56:30.738Z,72.63
2018-09-17T18:58:58.004Z,74.50
2018-09-17T19:01:25.358Z,74.76
2018-09-17T19:03:52.691Z,75.41
2018-09-17T19:06:20.021Z,75.89
2018-09-17T19:08:47.371Z,75.40
2018-09-17T19:11:14.617Z,76.79
2018-09-17T19:13:45.805Z,80.78
2018-09-17T19:16:13.141Z,79.90
2018-09-17T19:18:40.458Z,82.18
2018-09-17T19:21:07.856Z,80.82
2018-09-17T19:23:40.567Z,79.83
2018-09-17T19:26:07.816Z,77.12
2018-09-17T19:28:40.681Z,77.53
2018-09-17T19:31:07.972Z,76.54
2018-09-17T19:33:35.208Z,77.11
2018-09-17T19:36:02.472Z,75.74
2018-09-17T19:39:36.483Z,76.10
2018-09-17T19:42:03.967Z,76.28
2018-09-17T19:44:31.262Z,76.16
2018-09-17T19:46:58.550Z,76.46
2018-09-17T19:49:25.809Z,79.93
2018-09-17T19:51:58.704Z,79.27
2018-09-17T19:54:26.032Z,79.93
2018-09-17T19:56:53.270Z,80.91
2018-09-17T19:59:26.453Z,80.12
2018-09-17T20:01:53.729Z,79.13
2018-09-17T20:04:27.038Z,79.11
2018-09-17T20:06:54.341Z,80.32
2018-09-17T20:09:21.668Z,81.14
2018-09-17T20:11:48.893Z,82.76
2018-09-17T20:14:16.205Z,81.55
2018-09-17T20:16:43.437Z,81.13
2018-09-17T20:19:10.720Z,80.42
2018-09-17T20:21:38.035Z,79.84
2018-09-17T20:24:05.354Z,80.10
2018-09-17T20:26:32.619Z,81.81
2018-09-17T20:28:59.953Z,82.54
2018-09-17T20:31:27.219Z,83.97
2018-09-17T20:33:54.453Z,82.50
2018-09-17T20:36:21.723Z,81.27
2018-09-17T20:38:49.200Z,80.52
2018-09-17T20:41:16.435Z,81.04
2018-09-17T20:43:43.765Z,83.51
2018-09-17T20:46:11.032Z,85.70
2018-09-17T20:48:38.328Z,84.14
2018-09-17T20:51:12.642Z,82.95
2018-09-17T20:53:40.135Z,82.13
2018-09-17T20:56:07.632Z,83.40
2018-09-17T20:58:34.857Z,82.98
2018-09-17T21:01:02.876Z,82.75
2018-09-17T21:03:30.069Z,82.51
2018-09-17T21:05:57.317Z,81.63
2018-09-17T21:08:24.615Z,80.28
2018-09-17T21:10:51.848Z,80.20
2018-09-17T21:13:19.755Z,80.44
2018-09-17T21:15:47.040Z,81.53
2018-09-17T21:18:14.201Z,82.20
2018-09-17T21:20:41.553Z,81.82
2018-09-17T21:23:08.800Z,81.45
2018-09-17T21:25:36.017Z,81.17
2018-09-17T21:28:03.685Z,81.19
2018-09-17T21:30:30.943Z,82.92
2018-09-17T21:32:58.293Z,84.85
2018-09-17T21:35:25.508Z,86.63
2018-09-17T21:37:52.945Z,87.16
2018-09-17T21:40:20.950Z,87.83
2018-09-17T21:42:48.254Z,86.40
2018-09-17T21:45:15.505Z,85.04
2018-09-17T21:47:42.740Z,85.02
2018-09-17T21:50:10.053Z,84.19
2018-09-17T21:52:37.305Z,83.63
2018-09-17T21:55:04.833Z,85.25
2018-09-17T21:57:32.121Z,84.66
2018-09-17T21:59:59.753Z,83.76
2018-09-17T22:02:27.241Z,83.34
2018-09-17T22:04:54.653Z,84.57
2018-09-17T22:07:23.134Z,83.71
2018-09-17T22:09:50.377Z,83.97
2018-09-17T22:12:17.691Z,85.40
2018-09-17T22:14:44.963Z,88.20
2018-09-17T22:17:12.236Z,86.91
2018-09-17T22:19:39.575Z,86.20
2018-09-17T22:22:06.809Z,88.03
2018-09-17T22:24:34.041Z,88.77
2018-09-17T22:27:01.330Z,87.32
2018-09-17T22:29:28.565Z,86.44
2018-09-17T22:31:55.845Z,85.52
2018-09-17T22:34:23.155Z,84.89
2018-09-17T22:36:50.340Z,84.34
2018-09-17T22:39:17.609Z,84.27
2018-09-17T22:41:44.853Z,85.07
2018-09-17T22:44:12.105Z,86.33
2018-09-17T22:46:39.400Z,88.52
2018-09-17T22:49:07.072Z,87.28
2018-09-17T22:51:34.350Z,86.85
2018-09-17T22:54:01.678Z,85.15
2018-09-17T22:56:28.881Z,84.55
2018-09-17T22:58:56.199Z,84.21
2018-09-17T23:01:23.588Z,85.01
2018-09-17T23:03:50.853Z,86.28
2018-09-17T23:06:18.056Z,87.83
2018-09-17T23:08:45.330Z,88.00
2018-09-17T23:11:12.571Z,87.22
2018-09-17T23:13:39.977Z,86.69
2018-09-17T23:16:07.225Z,85.74
2018-09-17T23:18:34.457Z,84.89
2018-09-17T23:21:01.698Z,84.10
2018-09-17T23:23:29.003Z,84.09
2018-09-17T23:25:56.212Z,84.59
2018-09-17T23:28:23.475Z,84.20
2018-09-17T23:30:50.749Z,84.24
2018-09-17T23:33:17.960Z,84.69
2018-09-17T23:35:45.231Z,86.35
2018-09-17T23:38:12.422Z,89.75
2018-09-17T23:40:39.659Z,89.23
2018-09-17T23:43:06.908Z,88.30
2018-09-17T23:45:34.124Z,88.21
2018-09-17T23:48:01.404Z,87.22
2018-09-17T23:50:28.650Z,86.90
2018-09-17T23:52:55.840Z,86.85
2018-09-17T23:55:23.085Z,88.05
2018-09-17T23:57:50.334Z,89.06
